Terminal Aerodrome Forecast
Issued by NWS Wilmington, NC

Home | Current Version | Previous Version | Text Only | Print | Product List | Glossary On
Versions: 1 2 3 4 5 6 7 8 9 10 11 12 13
000
FTUS42 KILM 231133
TAFMYR
TAF
KMYR 231133Z 2312/2412 25006KT P6SM VCSH SCT030 BKN050
     FM231400 20011KT P6SM SCT030 SCT060
     FM231700 19011KT P6SM VCTS SCT040CB SCT250
      TEMPO 2318/2320 VRB15KT P6SM TSRA SCT025 BKN040CB
     FM240400 23004KT P6SM SCT250=

USA.gov is the U.S. government's official web portal to all federal, state and local government web resources and services.